createdAt,value
2019-05-26T00:00:29.053Z,57.95
2019-05-26T00:02:55.119Z,58.03
2019-05-26T00:05:21.174Z,58.24
2019-05-26T00:07:49.716Z,58.32
2019-05-26T00:10:15.753Z,58.21
2019-05-26T00:12:41.789Z,57.93
2019-05-26T00:15:07.748Z,58.26
2019-05-26T00:17:33.722Z,58.42
2019-05-26T00:19:59.744Z,58.11
2019-05-26T00:22:25.793Z,58.00
2019-05-26T00:24:51.741Z,58.25
2019-05-26T00:27:21.146Z,58.14
2019-05-26T00:29:49.708Z,57.88
2019-05-26T00:32:15.763Z,58.09
2019-05-26T00:34:42.118Z,57.54
2019-05-26T00:37:08.170Z,57.70
2019-05-26T00:39:34.221Z,58.08
2019-05-26T00:42:00.272Z,58.06
2019-05-26T00:44:26.163Z,57.93
2019-05-26T00:46:52.213Z,57.64
2019-05-26T00:49:18.591Z,57.96
2019-05-26T00:51:44.633Z,57.87
2019-05-26T00:54:10.683Z,57.76
2019-05-26T00:56:36.668Z,57.46
2019-05-26T00:59:02.932Z,57.80
2019-05-26T01:01:28.878Z,57.83
2019-05-26T01:03:54.813Z,57.55
2019-05-26T01:06:20.859Z,57.72
2019-05-26T01:08:48.138Z,57.70
2019-05-26T01:11:14.187Z,57.79
2019-05-26T01:13:40.544Z,57.49
2019-05-26T01:16:06.612Z,57.79
2019-05-26T01:18:32.763Z,57.39
2019-05-26T01:20:59.053Z,57.53
2019-05-26T01:23:25.101Z,57.54
2019-05-26T01:25:51.468Z,57.41
2019-05-26T01:28:19.491Z,57.38
2019-05-26T01:30:45.532Z,57.40
2019-05-26T01:33:11.581Z,57.21
2019-05-26T01:35:38.757Z,57.59
2019-05-26T01:38:20.416Z,57.29
2019-05-26T01:40:36.590Z,57.39
2019-05-26T01:43:02.590Z,57.34
2019-05-26T01:45:28.690Z,57.38
2019-05-26T01:47:55.149Z,57.39
2019-05-26T01:50:21.607Z,57.41
2019-05-26T01:52:48.783Z,57.50
2019-05-26T01:55:14.749Z,57.41
2019-05-26T01:57:40.696Z,57.47
2019-05-26T02:00:06.749Z,57.28
2019-05-26T02:02:32.657Z,57.34
2019-05-26T02:04:58.570Z,57.17
2019-05-26T02:07:24.597Z,57.77
2019-05-26T02:09:50.646Z,57.44
2019-05-26T02:12:16.692Z,57.26
2019-05-26T02:14:42.638Z,57.37
2019-05-26T02:17:08.689Z,57.35
2019-05-26T02:19:34.739Z,56.94
2019-05-26T02:22:00.785Z,57.31
2019-05-26T02:24:26.835Z,57.08
2019-05-26T02:26:52.889Z,57.05
2019-05-26T02:29:19.242Z,57.13
2019-05-26T02:31:45.287Z,57.02
2019-05-26T02:34:11.337Z,56.94
2019-05-26T02:36:37.309Z,57.06
2019-05-26T02:39:05.192Z,57.00
2019-05-26T02:41:31.544Z,57.09
2019-05-26T02:43:57.903Z,56.70
2019-05-26T02:46:23.949Z,56.75
2019-05-26T02:48:50.012Z,56.77
2019-05-26T02:51:16.086Z,57.15
2019-05-26T02:53:42.420Z,56.79
2019-05-26T02:56:08.316Z,56.55
2019-05-26T02:58:34.346Z,56.83
2019-05-26T03:01:00.420Z,56.56
2019-05-26T03:03:26.411Z,56.58
2019-05-26T03:05:52.680Z,56.72
2019-05-26T03:08:18.615Z,56.80
2019-05-26T03:10:44.590Z,56.64
2019-05-26T03:13:14.031Z,56.85
2019-05-26T03:15:40.079Z,56.72
2019-05-26T03:18:06.649Z,56.71
2019-05-26T03:20:39.780Z,57.26
2019-05-26T03:23:06.041Z,56.87
2019-05-26T03:25:32.306Z,56.79
2019-05-26T03:27:58.358Z,56.98
2019-05-26T03:30:24.744Z,57.25
2019-05-26T03:32:51.123Z,56.93
2019-05-26T03:35:19.634Z,56.54
2019-05-26T03:37:45.653Z,56.85
2019-05-26T03:40:11.619Z,57.24
2019-05-26T03:42:39.036Z,57.11
2019-05-26T03:45:06.569Z,57.28
2019-05-26T03:47:32.721Z,56.87
2019-05-26T03:49:58.840Z,57.17
2019-05-26T03:52:24.986Z,57.00
2019-05-26T03:54:50.973Z,56.79
2019-05-26T03:57:17.331Z,56.47
2019-05-26T03:59:43.278Z,56.57
2019-05-26T04:02:09.123Z,56.45
2019-05-26T04:04:35.168Z,56.59
2019-05-26T04:07:01.136Z,56.70
2019-05-26T04:09:27.097Z,56.54
2019-05-26T04:11:53.117Z,56.57
2019-05-26T04:14:19.164Z,56.95
2019-05-26T04:16:45.229Z,57.17
2019-05-26T04:19:11.189Z,57.09
2019-05-26T04:21:37.441Z,57.31
2019-05-26T04:24:03.513Z,56.85
2019-05-26T04:26:29.573Z,56.87
2019-05-26T04:28:55.646Z,56.97
2019-05-26T04:31:21.705Z,56.77
2019-05-26T04:33:47.654Z,57.26
2019-05-26T04:36:13.613Z,57.12
2019-05-26T04:38:39.585Z,56.95
2019-05-26T04:41:05.610Z,57.26
2019-05-26T04:43:31.663Z,56.93
2019-05-26T04:45:57.657Z,56.59
2019-05-26T04:48:23.681Z,56.90
2019-05-26T04:50:49.560Z,56.52
2019-05-26T04:53:15.456Z,56.93
2019-05-26T04:55:41.458Z,56.89
2019-05-26T04:58:07.412Z,56.83
2019-05-26T05:00:33.389Z,56.77
2019-05-26T05:02:59.292Z,56.72
2019-05-26T05:05:25.328Z,56.87
2019-05-26T05:07:51.369Z,56.83
2019-05-26T05:10:17.418Z,57.17
2019-05-26T05:12:43.530Z,56.99
2019-05-26T05:15:09.437Z,57.24
2019-05-26T05:17:35.794Z,57.32
2019-05-26T05:20:02.460Z,57.42
2019-05-26T05:22:28.403Z,57.24
2019-05-26T05:24:54.379Z,56.95
2019-05-26T05:27:20.436Z,57.49
2019-05-26T05:29:46.586Z,57.10
2019-05-26T05:32:12.537Z,57.44
2019-05-26T05:34:41.369Z,57.44
2019-05-26T05:37:07.411Z,57.34
2019-05-26T05:39:33.462Z,57.49
2019-05-26T05:41:59.509Z,56.79
2019-05-26T05:44:25.570Z,56.92
2019-05-26T05:46:51.742Z,57.29
2019-05-26T05:49:17.821Z,56.51
2019-05-26T05:51:43.871Z,57.69
2019-05-26T05:54:09.931Z,57.74
2019-05-26T05:56:35.991Z,57.67
2019-05-26T05:59:02.083Z,57.88
2019-05-26T06:01:28.110Z,58.25
2019-05-26T06:03:54.160Z,58.31
2019-05-26T06:06:20.210Z,59.02
2019-05-26T06:08:46.669Z,58.96
2019-05-26T06:11:16.452Z,59.56
2019-05-26T06:13:40.476Z,59.47
2019-05-26T06:16:06.526Z,59.31
2019-05-26T06:18:32.609Z,59.26
2019-05-26T06:20:58.656Z,59.44
2019-05-26T06:23:24.601Z,59.39
2019-05-26T06:25:50.714Z,59.51
2019-05-26T06:28:16.646Z,59.98
2019-05-26T06:30:43.007Z,59.78
2019-05-26T06:33:09.165Z,60.16
2019-05-26T06:35:35.260Z,60.04
2019-05-26T06:38:01.310Z,59.65
2019-05-26T06:40:27.550Z,59.59
2019-05-26T06:42:53.440Z,59.78
2019-05-26T06:45:20.458Z,59.80
2019-05-26T06:47:46.850Z,60.20
2019-05-26T06:50:12.793Z,60.18
2019-05-26T06:52:38.767Z,60.22
2019-05-26T06:55:05.367Z,59.45
2019-05-26T06:57:31.429Z,59.92
2019-05-26T06:59:57.401Z,60.19
2019-05-26T07:02:23.627Z,59.80
2019-05-26T07:04:49.517Z,60.29
2019-05-26T07:07:15.466Z,60.66
2019-05-26T07:09:41.546Z,60.55
2019-05-26T07:12:09.696Z,60.14
2019-05-26T07:14:35.317Z,59.50
2019-05-26T07:17:01.488Z,59.99
2019-05-26T07:19:27.559Z,60.41
2019-05-26T07:21:53.520Z,59.53
2019-05-26T07:24:19.489Z,59.44
2019-05-26T07:26:45.538Z,59.23
2019-05-26T07:29:11.494Z,59.18
2019-05-26T07:31:38.675Z,58.78
2019-05-26T07:34:04.724Z,58.83
2019-05-26T07:36:30.777Z,58.62
2019-05-26T07:38:56.838Z,58.62
2019-05-26T07:41:22.917Z,58.69
2019-05-26T07:43:48.969Z,58.65
2019-05-26T07:46:14.916Z,58.78
2019-05-26T07:48:40.992Z,58.60
2019-05-26T07:51:07.151Z,58.67
2019-05-26T07:53:33.126Z,58.78
2019-05-26T07:55:59.159Z,58.96
2019-05-26T07:58:25.213Z,59.05
2019-05-26T08:00:51.219Z,59.17
2019-05-26T08:03:17.631Z,58.97
2019-05-26T08:05:43.576Z,59.14
2019-05-26T08:08:13.192Z,59.04
2019-05-26T08:10:40.009Z,58.99
2019-05-26T08:13:05.899Z,59.12
2019-05-26T08:15:32.322Z,58.97
2019-05-26T08:17:59.409Z,58.62
2019-05-26T08:20:26.030Z,58.79
2019-05-26T08:22:52.349Z,58.49
2019-05-26T08:25:19.192Z,58.93
2019-05-26T08:27:45.986Z,59.19
2019-05-26T08:30:12.735Z,59.38
2019-05-26T08:32:40.326Z,59.50
2019-05-26T08:35:06.872Z,59.54
2019-05-26T08:37:33.955Z,59.53
2019-05-26T08:40:19.544Z,59.52
2019-05-26T08:42:48.009Z,59.58
2019-05-26T08:45:14.756Z,59.65
2019-05-26T08:47:41.754Z,59.70
2019-05-26T08:50:08.734Z,59.78
2019-05-26T08:52:35.307Z,59.83
2019-05-26T08:55:01.549Z,59.82
2019-05-26T08:57:28.223Z,59.89
2019-05-26T08:59:54.891Z,59.91
2019-05-26T09:02:23.876Z,59.98
2019-05-26T09:04:50.379Z,60.00
2019-05-26T09:07:16.736Z,59.98
2019-05-26T09:09:43.442Z,60.06
2019-05-26T09:12:10.443Z,60.02
2019-05-26T09:14:36.670Z,60.04
2019-05-26T09:17:03.509Z,60.04
2019-05-26T09:19:29.903Z,60.12
2019-05-26T09:21:56.562Z,60.19
2019-05-26T09:24:23.167Z,60.20
2019-05-26T09:26:49.729Z,60.17
2019-05-26T09:29:16.321Z,60.18
2019-05-26T09:31:42.861Z,60.21
2019-05-26T09:34:09.649Z,60.24
2019-05-26T09:36:36.328Z,60.22
2019-05-26T09:39:04.845Z,60.32
2019-05-26T09:41:31.633Z,60.26
2019-05-26T09:43:58.418Z,60.30
2019-05-26T09:46:24.967Z,60.29
2019-05-26T09:48:51.438Z,60.37
2019-05-26T09:51:18.229Z,60.36
2019-05-26T09:53:44.704Z,60.47
2019-05-26T09:56:11.652Z,60.42
2019-05-26T09:58:38.427Z,60.46
2019-05-26T10:01:05.102Z,60.54
2019-05-26T10:03:31.999Z,60.56
2019-05-26T10:05:58.453Z,60.58
2019-05-26T10:08:25.435Z,60.57
2019-05-26T10:10:52.014Z,60.61
2019-05-26T10:13:30.883Z,60.74
2019-05-26T10:15:47.673Z,60.71
2019-05-26T10:18:13.827Z,60.72
2019-05-26T10:20:40.195Z,60.76
2019-05-26T10:23:06.778Z,60.74
2019-05-26T10:25:33.354Z,60.83
2019-05-26T10:28:00.518Z,60.82
2019-05-26T10:30:27.009Z,60.83
2019-05-26T10:32:53.540Z,60.87
2019-05-26T10:35:21.015Z,60.88
2019-05-26T10:37:47.900Z,60.91
2019-05-26T10:40:14.467Z,60.93
2019-05-26T10:42:41.198Z,60.75
2019-05-26T10:45:09.708Z,60.42
2019-05-26T10:47:36.540Z,60.18
2019-05-26T10:50:05.194Z,60.48
2019-05-26T10:52:32.424Z,60.63
2019-05-26T10:54:59.801Z,60.73
2019-05-26T10:57:26.270Z,60.76
2019-05-26T10:59:53.483Z,60.88
2019-05-26T11:02:20.143Z,60.96
2019-05-26T11:04:47.062Z,60.96
2019-05-26T11:07:13.444Z,60.89
2019-05-26T11:09:40.264Z,60.95
2019-05-26T11:12:07.336Z,61.10
2019-05-26T11:14:34.265Z,61.13
2019-05-26T11:17:00.790Z,61.09
2019-05-26T11:19:27.575Z,61.12
2019-05-26T11:21:54.271Z,61.33
2019-05-26T11:24:20.781Z,61.34
2019-05-26T11:26:47.728Z,61.37
2019-05-26T11:29:15.012Z,61.56
2019-05-26T11:31:41.493Z,61.47
2019-05-26T11:34:08.335Z,61.39
2019-05-26T11:36:34.995Z,61.37
2019-05-26T11:39:01.996Z,61.40
2019-05-26T11:41:30.581Z,61.42
2019-05-26T11:43:57.986Z,61.38
2019-05-26T11:46:24.860Z,61.47
2019-05-26T11:48:51.833Z,61.34
2019-05-26T11:51:20.440Z,61.26
2019-05-26T11:53:49.704Z,61.29
2019-05-26T11:59:03.708Z,61.32
2019-05-26T12:01:30.324Z,61.29
2019-05-26T12:03:57.048Z,61.33
2019-05-26T12:06:23.756Z,61.30
2019-05-26T12:08:50.164Z,61.41
2019-05-26T12:11:16.696Z,61.36
2019-05-26T12:13:43.243Z,61.41
2019-05-26T12:16:09.790Z,61.42
2019-05-26T12:18:36.440Z,61.38
2019-05-26T12:21:02.729Z,61.45
2019-05-26T12:23:29.310Z,61.52
2019-05-26T12:25:55.844Z,61.60
2019-05-26T12:28:22.533Z,61.63
2019-05-26T12:30:49.533Z,61.54
2019-05-26T12:33:16.168Z,61.72
2019-05-26T12:35:45.942Z,61.65
2019-05-26T12:38:12.677Z,61.88
2019-05-26T12:40:39.303Z,61.77
2019-05-26T12:43:05.602Z,61.62
2019-05-26T12:45:33.292Z,61.69
2019-05-26T12:48:02.544Z,61.68
2019-05-26T12:50:29.308Z,61.66
2019-05-26T12:52:56.270Z,61.68
2019-05-26T12:55:22.650Z,62.02
2019-05-26T12:57:49.101Z,61.70
2019-05-26T13:00:15.605Z,61.83
2019-05-26T13:02:41.577Z,61.79
2019-05-26T13:05:09.574Z,61.88
2019-05-26T13:07:35.569Z,61.71
2019-05-26T13:10:01.640Z,61.66
2019-05-26T13:12:28.016Z,61.57
2019-05-26T13:15:05.467Z,61.60
2019-05-26T13:17:22.011Z,61.81
2019-05-26T13:19:48.058Z,61.74
2019-05-26T13:22:14.104Z,61.73
2019-05-26T13:24:40.101Z,61.71
2019-05-26T13:27:06.050Z,61.75
2019-05-26T13:29:32.087Z,61.91
2019-05-26T13:31:58.135Z,62.09
2019-05-26T13:34:24.189Z,62.00
2019-05-26T13:36:50.137Z,61.91
2019-05-26T13:39:16.390Z,61.79
2019-05-26T13:41:42.340Z,62.10
2019-05-26T13:44:10.685Z,62.09
2019-05-26T13:46:36.560Z,62.15
2019-05-26T13:49:05.849Z,62.13
2019-05-26T13:51:31.911Z,62.22
2019-05-26T13:53:58.070Z,61.99
2019-05-26T13:56:24.122Z,62.35
2019-05-26T13:58:50.079Z,62.12
2019-05-26T14:01:16.135Z,62.14
2019-05-26T14:03:42.120Z,62.31
2019-05-26T14:06:08.798Z,62.15
2019-05-26T14:08:34.847Z,62.19
2019-05-26T14:11:00.907Z,62.24
2019-05-26T14:13:26.998Z,62.35
2019-05-26T14:15:54.063Z,62.48
2019-05-26T14:18:20.090Z,62.53
2019-05-26T14:20:45.998Z,62.45
2019-05-26T14:23:11.886Z,62.04
2019-05-26T14:25:38.048Z,61.76
2019-05-26T14:28:04.916Z,61.47
2019-05-26T14:30:32.911Z,61.19
2019-05-26T14:32:59.178Z,61.07
2019-05-26T14:35:25.879Z,60.91
2019-05-26T14:37:52.640Z,60.84
2019-05-26T14:40:19.163Z,60.82
2019-05-26T14:42:45.264Z,60.93
2019-05-26T14:45:11.315Z,60.94
2019-05-26T14:47:37.362Z,61.00
2019-05-26T14:50:05.464Z,61.04
2019-05-26T14:52:31.546Z,61.00
2019-05-26T14:54:57.674Z,60.71
2019-05-26T14:57:23.737Z,60.79
2019-05-26T14:59:49.794Z,60.91
2019-05-26T15:02:16.864Z,61.09
2019-05-26T15:04:43.554Z,61.17
2019-05-26T15:07:09.517Z,61.21
2019-05-26T15:09:35.412Z,61.24
2019-05-26T15:12:01.502Z,61.28
2019-05-26T15:14:27.552Z,61.25
2019-05-26T15:16:53.601Z,61.27
2019-05-26T15:19:19.664Z,61.37
2019-05-26T15:21:45.740Z,61.34
2019-05-26T15:24:11.799Z,61.39
2019-05-26T15:26:40.222Z,61.42
2019-05-26T15:29:06.060Z,61.45
2019-05-26T15:31:32.149Z,61.50
2019-05-26T15:33:58.203Z,61.47
2019-05-26T15:36:24.262Z,61.52
2019-05-26T15:38:50.525Z,61.57
2019-05-26T15:41:16.575Z,61.49
2019-05-26T15:43:42.624Z,61.45
2019-05-26T15:46:23.914Z,61.55
2019-05-26T15:48:36.697Z,61.52
2019-05-26T15:51:03.273Z,61.55
2019-05-26T15:53:29.320Z,61.55
2019-05-26T15:55:55.391Z,61.67
2019-05-26T15:58:21.437Z,61.59
2019-05-26T16:00:47.488Z,61.65
2019-05-26T16:03:13.438Z,61.72
2019-05-26T16:05:39.397Z,61.79
2019-05-26T16:08:05.441Z,61.74
2019-05-26T16:10:31.495Z,61.77
2019-05-26T16:12:57.576Z,61.93
2019-05-26T16:15:23.714Z,62.01
2019-05-26T16:17:49.788Z,62.12
2019-05-26T16:20:15.832Z,62.03
2019-05-26T16:22:41.883Z,62.08
2019-05-26T16:25:08.459Z,62.09
2019-05-26T16:27:34.409Z,61.99
2019-05-26T16:30:00.304Z,62.15
2019-05-26T16:32:26.356Z,62.09
2019-05-26T16:34:52.218Z,61.96
2019-05-26T16:37:18.393Z,62.12
2019-05-26T16:39:44.343Z,62.16
2019-05-26T16:42:10.396Z,62.35
2019-05-26T16:44:36.777Z,62.17
2019-05-26T16:47:02.847Z,62.33
2019-05-26T16:49:29.008Z,62.34
2019-05-26T16:51:55.063Z,62.32
2019-05-26T16:54:21.031Z,62.52
2019-05-26T16:56:47.291Z,62.50
2019-05-26T16:59:13.574Z,62.67
2019-05-26T17:01:39.534Z,62.60
2019-05-26T17:04:05.549Z,62.49
2019-05-26T17:06:31.521Z,62.57
2019-05-26T17:08:57.494Z,62.37
2019-05-26T17:11:23.633Z,62.50
2019-05-26T17:13:49.606Z,62.55
2019-05-26T17:16:15.602Z,62.76
2019-05-26T17:18:42.643Z,62.68
2019-05-26T17:21:08.826Z,62.80
2019-05-26T17:23:34.986Z,62.85
2019-05-26T17:26:01.042Z,62.83
2019-05-26T17:28:27.106Z,62.90
2019-05-26T17:30:53.162Z,62.92
2019-05-26T17:33:19.217Z,62.86
2019-05-26T17:35:45.279Z,62.90
2019-05-26T17:38:11.344Z,63.05
2019-05-26T17:40:39.648Z,63.07
2019-05-26T17:43:05.738Z,63.05
2019-05-26T17:45:31.808Z,63.13
2019-05-26T17:47:57.971Z,63.15
2019-05-26T17:50:24.024Z,63.17
2019-05-26T17:52:49.970Z,63.35
2019-05-26T17:55:16.334Z,63.27
2019-05-26T17:57:42.796Z,63.27
2019-05-26T18:00:09.488Z,63.36
2019-05-26T18:02:35.973Z,63.40
2019-05-26T18:05:02.341Z,63.38
2019-05-26T18:07:28.717Z,63.40
2019-05-26T18:09:54.777Z,63.41
2019-05-26T18:12:20.943Z,63.56
2019-05-26T18:14:47.437Z,63.46
2019-05-26T18:17:13.807Z,63.35
2019-05-26T18:19:39.971Z,63.21
2019-05-26T18:22:06.331Z,63.27
2019-05-26T18:24:32.503Z,63.53
2019-05-26T18:26:58.557Z,63.58
2019-05-26T18:29:24.607Z,63.52
2019-05-26T18:31:50.769Z,63.50
2019-05-26T18:34:16.852Z,63.57
2019-05-26T18:36:42.910Z,63.55
2019-05-26T18:39:09.365Z,63.57
2019-05-26T18:41:35.525Z,63.33
2019-05-26T18:44:01.585Z,63.38
2019-05-26T18:46:27.653Z,63.45
2019-05-26T18:48:53.716Z,63.40
2019-05-26T18:51:19.768Z,63.46
2019-05-26T18:53:45.765Z,63.45
2019-05-26T18:56:11.746Z,63.27
2019-05-26T18:58:38.997Z,63.38
2019-05-26T19:01:05.116Z,63.30
2019-05-26T19:03:31.447Z,63.35
2019-05-26T19:05:57.505Z,63.34
2019-05-26T19:08:23.560Z,63.05
2019-05-26T19:10:49.609Z,62.71
2019-05-26T19:13:15.774Z,62.44
2019-05-26T19:15:41.835Z,62.24
2019-05-26T19:18:19.237Z,62.00
2019-05-26T19:20:36.232Z,61.88
2019-05-26T19:23:02.286Z,61.75
2019-05-26T19:25:29.162Z,61.75
2019-05-26T19:27:55.202Z,61.73
2019-05-26T19:30:21.251Z,61.76
2019-05-26T19:32:47.201Z,61.81
2019-05-26T19:35:13.162Z,61.84
2019-05-26T19:37:39.215Z,61.91
2019-05-26T19:40:06.084Z,61.96
2019-05-26T19:42:32.368Z,62.06
2019-05-26T19:44:58.414Z,62.09
2019-05-26T19:47:24.378Z,62.17
2019-05-26T19:49:50.458Z,62.07
2019-05-26T19:52:16.437Z,62.13
2019-05-26T19:54:44.316Z,62.16
2019-05-26T19:57:10.411Z,62.15
2019-05-26T19:59:36.409Z,62.24
2019-05-26T20:02:17.276Z,62.27
2019-05-26T20:04:30.285Z,62.34
2019-05-26T20:06:56.545Z,62.33
2019-05-26T20:09:22.504Z,62.35
2019-05-26T20:11:48.579Z,62.39
2019-05-26T20:14:15.171Z,62.40
2019-05-26T20:16:41.228Z,62.47
2019-05-26T20:19:07.281Z,62.55
2019-05-26T20:21:33.447Z,62.61
2019-05-26T20:23:59.611Z,62.58
2019-05-26T20:26:25.691Z,62.63
2019-05-26T20:28:51.963Z,62.68
2019-05-26T20:31:18.120Z,62.68
2019-05-26T20:33:44.192Z,62.78
2019-05-26T20:36:10.360Z,62.83
2019-05-26T20:38:36.310Z,62.84
2019-05-26T20:41:02.363Z,62.82
2019-05-26T20:43:28.720Z,62.80
2019-05-26T20:45:55.012Z,62.84
2019-05-26T20:48:21.117Z,62.93
2019-05-26T20:50:47.005Z,62.94
2019-05-26T20:53:13.055Z,62.97
2019-05-26T20:55:39.118Z,62.97
2019-05-26T20:58:05.177Z,63.04
2019-05-26T21:00:31.241Z,63.03
2019-05-26T21:02:57.291Z,62.99
2019-05-26T21:05:23.443Z,63.03
2019-05-26T21:07:49.595Z,63.13
2019-05-26T21:10:16.053Z,63.03
2019-05-26T21:12:42.421Z,63.06
2019-05-26T21:15:11.691Z,63.12
2019-05-26T21:17:38.023Z,63.12
2019-05-26T21:20:05.096Z,63.07
2019-05-26T21:22:31.151Z,63.11
2019-05-26T21:24:57.221Z,63.20
2019-05-26T21:27:23.282Z,63.27
2019-05-26T21:29:49.332Z,63.11
2019-05-26T21:32:15.393Z,63.18
2019-05-26T21:34:41.297Z,63.08
2019-05-26T21:37:07.284Z,63.17
2019-05-26T21:39:33.346Z,63.19
2019-05-26T21:41:59.328Z,63.11
2019-05-26T21:44:25.603Z,63.18
2019-05-26T21:46:51.721Z,63.29
2019-05-26T21:49:18.197Z,63.19
2019-05-26T21:51:44.163Z,63.32
2019-05-26T21:54:10.212Z,63.28
2019-05-26T21:56:36.378Z,63.29
2019-05-26T21:59:02.445Z,63.34
2019-05-26T22:01:28.504Z,63.34
2019-05-26T22:03:54.567Z,63.41
2019-05-26T22:06:20.621Z,63.37
2019-05-26T22:08:47.188Z,63.39
2019-05-26T22:11:13.776Z,63.46
2019-05-26T22:13:39.722Z,63.53
2019-05-26T22:16:05.769Z,62.96
2019-05-26T22:18:31.826Z,63.35
2019-05-26T22:20:57.889Z,63.35
2019-05-26T22:23:23.938Z,63.40
2019-05-26T22:25:50.031Z,63.51
2019-05-26T22:28:15.903Z,63.60
2019-05-26T22:30:42.258Z,63.50
2019-05-26T22:33:11.292Z,63.55
2019-05-26T22:35:37.901Z,63.60
2019-05-26T22:38:06.489Z,63.57
2019-05-26T22:40:32.544Z,63.66
2019-05-26T22:42:58.607Z,63.73
2019-05-26T22:45:24.675Z,63.75
2019-05-26T22:47:50.858Z,63.78
2019-05-26T22:50:17.404Z,63.73
2019-05-26T22:52:43.449Z,63.79
2019-05-26T22:55:09.529Z,63.70
2019-05-26T22:57:35.571Z,63.73
2019-05-26T23:00:01.636Z,63.69
2019-05-26T23:02:27.594Z,63.76
2019-05-26T23:04:53.556Z,63.72
2019-05-26T23:07:19.608Z,63.77
2019-05-26T23:09:45.926Z,63.79
2019-05-26T23:12:11.863Z,63.79
2019-05-26T23:14:38.118Z,63.78
2019-05-26T23:17:04.674Z,63.73
2019-05-26T23:19:31.002Z,63.71
2019-05-26T23:21:56.908Z,63.77
2019-05-26T23:24:22.794Z,63.76
2019-05-26T23:26:48.835Z,63.77
2019-05-26T23:29:14.849Z,63.78
2019-05-26T23:31:41.205Z,63.76
2019-05-26T23:34:09.484Z,63.83
2019-05-26T23:36:35.100Z,63.79
2019-05-26T23:39:01.240Z,63.81
2019-05-26T23:41:27.291Z,63.81
2019-05-26T23:43:53.343Z,63.83
2019-05-26T23:46:19.435Z,63.85
2019-05-26T23:48:45.398Z,63.83
2019-05-26T23:51:11.446Z,63.86
2019-05-26T23:53:38.744Z,63.86
2019-05-26T23:56:04.735Z,63.89
2019-05-26T23:58:30.775Z,63.89
